Terminal Aerodrome Forecast
Issued by NWS Tuscon, AZ

Home | Current Version | Previous Version | Text Only | Print | Product List | Glossary On
Versions: 1 2 3 4 5 6 7 8 9 10 11 12
892
FTUS45 KTWC 301120
TAFTUS
TAF
KTUS 301120Z 3012/0112 15009KT P6SM SKC
     FM301500 17013KT P6SM FEW090
     FM301900 22023G33KT P6SM SCT090 SCT150
     FM010300 24013KT P6SM SCT150
     FM010600 15009KT P6SM SCT200=

USA.gov is the U.S. government's official web portal to all federal, state and local government web resources and services.